createdAt,value
2019-05-30T00:01:06.329Z,101623.15
2019-05-30T00:04:29.533Z,101635.70
2019-05-30T00:07:46.179Z,101630.97
2019-05-30T00:11:03.135Z,101625.69
2019-05-30T00:14:19.946Z,101618.98
2019-05-30T00:17:36.714Z,101629.08
2019-05-30T00:20:54.599Z,101634.41
2019-05-30T00:24:11.316Z,101636.38
2019-05-30T00:27:27.922Z,101633.91
2019-05-30T00:30:44.567Z,101635.30
2019-05-30T00:34:05.943Z,101626.41
2019-05-30T00:37:22.783Z,101633.68
2019-05-30T00:40:39.470Z,101635.33
2019-05-30T00:43:56.207Z,101631.19
2019-05-30T00:47:12.791Z,101632.84
2019-05-30T00:50:29.520Z,101635.07
2019-05-30T00:53:46.243Z,101638.41
2019-05-30T00:57:03.044Z,101635.92
2019-05-30T01:00:20.216Z,101640.09
2019-05-30T01:03:36.879Z,101637.03
2019-05-30T01:06:53.585Z,101631.48
2019-05-30T01:10:11.814Z,101633.73
2019-05-30T01:13:28.474Z,101639.81
2019-05-30T01:16:45.203Z,101634.56
2019-05-30T01:20:03.121Z,101640.08
2019-05-30T01:23:20.063Z,101634.83
2019-05-30T01:26:36.742Z,101628.44
2019-05-30T01:29:53.412Z,101630.66
2019-05-30T01:33:10.165Z,101628.70
2019-05-30T01:36:26.887Z,101624.54
2019-05-30T01:39:43.794Z,101627.02
2019-05-30T01:43:01.991Z,101625.63
2019-05-30T01:46:19.002Z,101632.00
2019-05-30T01:49:35.766Z,101637.28
2019-05-30T01:52:52.496Z,101639.20
2019-05-30T01:56:09.303Z,101632.25
2019-05-30T01:59:26.033Z,101627.00
2019-05-30T02:02:42.605Z,101634.50
2019-05-30T02:05:59.191Z,101636.70
2019-05-30T02:09:17.360Z,101645.27
2019-05-30T02:12:34.087Z,101635.56
2019-05-30T02:15:50.698Z,101637.21
2019-05-30T02:19:07.944Z,101642.76
2019-05-30T02:22:24.578Z,101637.20
2019-05-30T02:25:41.327Z,101624.97
2019-05-30T02:28:58.015Z,101631.95
2019-05-30T02:32:15.032Z,101639.70
2019-05-30T02:35:31.643Z,101636.36
2019-05-30T02:38:49.270Z,101630.23
2019-05-30T02:42:07.303Z,101631.30
2019-05-30T02:45:24.540Z,101639.33
2019-05-30T02:48:57.233Z,101645.13
2019-05-30T02:51:59.691Z,101649.55
2019-05-30T02:55:17.071Z,101649.55
2019-05-30T02:58:33.728Z,101658.95
2019-05-30T03:02:00.903Z,101655.59
2019-05-30T03:05:12.129Z,101654.78
2019-05-30T03:08:27.301Z,101662.58
2019-05-30T03:11:44.158Z,101657.34
2019-05-30T03:15:02.499Z,101668.22
2019-05-30T03:18:19.300Z,101672.90
2019-05-30T03:21:35.941Z,101675.98
2019-05-30T03:24:52.563Z,101676.81
2019-05-30T03:28:11.216Z,101685.70
2019-05-30T03:31:30.172Z,101680.13
2019-05-30T03:34:47.115Z,101674.06
2019-05-30T03:38:05.644Z,101682.70
2019-05-30T03:41:22.350Z,101679.38
2019-05-30T03:44:39.162Z,101681.92
2019-05-30T03:48:01.857Z,101677.77
2019-05-30T03:51:20.486Z,101681.40
2019-05-30T03:54:38.468Z,101686.42
2019-05-30T03:58:12.801Z,101683.93
2019-05-30T04:01:38.293Z,101690.92
2019-05-30T04:05:11.927Z,101694.78
2019-05-30T04:08:30.351Z,101693.14
2019-05-30T04:11:59.222Z,101698.70
2019-05-30T04:15:35.064Z,101690.66
2019-05-30T04:18:51.740Z,101685.39
2019-05-30T04:22:09.358Z,101696.22
2019-05-30T04:25:26.046Z,101699.80
2019-05-30T04:28:43.386Z,101696.98
2019-05-30T04:32:00.071Z,101711.13
2019-05-30T04:35:18.878Z,101694.95
2019-05-30T04:38:35.991Z,101704.13
2019-05-30T04:41:53.076Z,101702.92
2019-05-30T04:45:13.759Z,101703.42
2019-05-30T04:48:30.438Z,101706.11
2019-05-30T04:51:51.262Z,101699.02
2019-05-30T04:55:11.181Z,101713.73
2019-05-30T04:58:29.105Z,101718.08
2019-05-30T05:01:46.147Z,101714.70
2019-05-30T05:05:02.855Z,101714.02
2019-05-30T05:08:27.552Z,101725.63
2019-05-30T05:11:44.286Z,101730.83
2019-05-30T05:15:07.786Z,101734.55
2019-05-30T05:18:24.614Z,101729.60
2019-05-30T05:21:41.235Z,101732.27
2019-05-30T05:24:57.842Z,101734.87
2019-05-30T05:28:15.756Z,101736.56
2019-05-30T05:31:32.461Z,101735.89
2019-05-30T05:34:52.054Z,101743.50
2019-05-30T05:38:09.926Z,101739.42
2019-05-30T05:41:26.252Z,101748.72
2019-05-30T05:44:43.135Z,101752.41
2019-05-30T05:47:59.945Z,101748.95
2019-05-30T05:51:18.491Z,101741.55
2019-05-30T05:54:37.260Z,101746.98
2019-05-30T05:57:54.341Z,101744.09
2019-05-30T06:01:11.255Z,101748.61
2019-05-30T06:04:27.887Z,101747.61
2019-05-30T06:07:44.538Z,101749.94
2019-05-30T06:11:02.603Z,101748.11
2019-05-30T06:14:19.855Z,101744.63
2019-05-30T06:17:36.542Z,101752.00
2019-05-30T06:20:53.170Z,101745.67
2019-05-30T06:24:10.099Z,101751.50
2019-05-30T06:27:26.690Z,101752.34
2019-05-30T06:30:43.415Z,101753.36
2019-05-30T06:34:00.092Z,101756.50
2019-05-30T06:37:16.721Z,101765.20
2019-05-30T06:40:33.314Z,101753.28
2019-05-30T06:43:50.129Z,101758.77
2019-05-30T06:47:06.787Z,101749.83
2019-05-30T06:50:24.709Z,101757.98
2019-05-30T06:53:41.498Z,101760.54
2019-05-30T06:56:58.201Z,101763.61
2019-05-30T07:00:15.609Z,101763.61
2019-05-30T07:03:32.692Z,101756.10
2019-05-30T07:06:50.373Z,101767.06
2019-05-30T07:10:07.799Z,101756.61
2019-05-30T07:13:25.216Z,101769.69
2019-05-30T07:16:42.120Z,101763.94
2019-05-30T07:19:58.806Z,101773.56
2019-05-30T07:23:15.659Z,101766.66
2019-05-30T07:26:34.005Z,101761.27
2019-05-30T07:29:50.784Z,101763.27
2019-05-30T07:33:07.389Z,101757.65
2019-05-30T07:36:24.165Z,101757.34
2019-05-30T07:39:40.769Z,101755.64
2019-05-30T07:42:57.519Z,101756.65
2019-05-30T07:46:14.282Z,101762.27
2019-05-30T07:49:30.893Z,101760.79
2019-05-30T07:52:47.649Z,101760.79
2019-05-30T07:56:04.554Z,101762.30
2019-05-30T07:59:21.603Z,101771.08
2019-05-30T08:02:38.550Z,101756.67
2019-05-30T08:05:55.195Z,101752.39
2019-05-30T08:09:13.038Z,101751.23
2019-05-30T08:12:30.122Z,101748.09
2019-05-30T08:15:46.896Z,101751.58
2019-05-30T08:19:03.584Z,101746.45
2019-05-30T08:22:20.487Z,101753.05
2019-05-30T08:25:38.397Z,101749.27
2019-05-30T08:28:55.191Z,101744.61
2019-05-30T08:32:11.945Z,101744.78
2019-05-30T08:35:39.178Z,101742.06
2019-05-30T08:38:48.233Z,101742.05
2019-05-30T08:42:05.120Z,101749.56
2019-05-30T08:45:22.247Z,101744.36
2019-05-30T08:48:40.293Z,101730.72
2019-05-30T08:51:57.005Z,101740.35
2019-05-30T08:55:16.453Z,101740.49
2019-05-30T08:58:33.108Z,101736.14
2019-05-30T09:01:52.994Z,101745.70
2019-05-30T09:05:08.556Z,101735.23
2019-05-30T09:08:25.167Z,101733.13
2019-05-30T09:11:42.334Z,101735.56
2019-05-30T09:14:59.152Z,101732.75
2019-05-30T09:18:16.090Z,101734.36
2019-05-30T09:21:32.724Z,101718.34
2019-05-30T09:24:49.407Z,101709.95
2019-05-30T09:28:06.034Z,101718.01
2019-05-30T09:31:22.875Z,101714.34
2019-05-30T09:34:40.398Z,101709.55
2019-05-30T09:37:58.095Z,101716.13
2019-05-30T09:41:14.770Z,101722.29
2019-05-30T09:44:31.476Z,101715.67
2019-05-30T09:47:49.287Z,101709.27
2019-05-30T09:51:06.316Z,101722.90
2019-05-30T09:54:22.966Z,101718.63
2019-05-30T09:57:39.752Z,101702.44
2019-05-30T10:00:56.436Z,101705.86
2019-05-30T10:04:13.030Z,101703.71
2019-05-30T10:07:29.742Z,101705.75
2019-05-30T10:10:47.708Z,101698.36
2019-05-30T10:14:04.921Z,101714.03
2019-05-30T10:17:21.557Z,101702.30
2019-05-30T10:20:38.326Z,101698.72
2019-05-30T10:23:55.115Z,101704.42
2019-05-30T10:27:12.557Z,101705.50
2019-05-30T10:30:31.045Z,101691.49
2019-05-30T10:33:49.215Z,101693.84
2019-05-30T10:37:07.104Z,101688.33
2019-05-30T10:40:24.297Z,101694.09
2019-05-30T10:43:41.132Z,101688.80
2019-05-30T10:46:57.946Z,101685.10
2019-05-30T10:50:14.967Z,101681.58
2019-05-30T10:53:31.570Z,101671.88
2019-05-30T10:56:49.558Z,101664.42
2019-05-30T11:00:09.441Z,101669.12
2019-05-30T11:03:25.295Z,101669.27
2019-05-30T11:07:04.835Z,101665.50
2019-05-30T11:10:17.807Z,101651.48
2019-05-30T11:13:34.440Z,101662.48
2019-05-30T11:16:51.734Z,101655.39
2019-05-30T11:20:08.677Z,101662.69
2019-05-30T11:23:25.389Z,101646.97
2019-05-30T11:26:42.100Z,101652.09
2019-05-30T11:29:59.023Z,101647.73
2019-05-30T11:33:15.668Z,101638.66
2019-05-30T11:36:32.321Z,101641.42
2019-05-30T11:39:55.792Z,101633.19
2019-05-30T11:43:12.387Z,101632.23
2019-05-30T11:46:29.160Z,101630.91
2019-05-30T11:49:45.775Z,101622.14
2019-05-30T11:53:11.306Z,101617.95
2019-05-30T11:56:31.983Z,101621.39
2019-05-30T11:59:50.093Z,101620.12
2019-05-30T12:03:06.890Z,101613.34
2019-05-30T12:06:23.500Z,101615.27
2019-05-30T12:09:40.244Z,101605.39
2019-05-30T12:12:57.353Z,101607.27
2019-05-30T12:16:14.279Z,101599.87
2019-05-30T12:19:30.916Z,101597.95
2019-05-30T12:22:47.550Z,101583.76
2019-05-30T12:26:04.182Z,101598.73
2019-05-30T12:29:20.899Z,101587.92
2019-05-30T12:32:37.615Z,101589.34
2019-05-30T12:35:54.445Z,101593.77
2019-05-30T12:39:12.175Z,101582.06
2019-05-30T12:42:28.947Z,101579.06
2019-05-30T12:45:45.645Z,101583.11
2019-05-30T12:49:03.594Z,101575.57
2019-05-30T12:52:20.499Z,101588.40
2019-05-30T12:55:37.780Z,101576.59
2019-05-30T12:58:54.578Z,101572.90
2019-05-30T13:02:11.464Z,101561.20
2019-05-30T13:05:28.976Z,101556.48
2019-05-30T13:08:45.604Z,101566.85
2019-05-30T13:12:02.633Z,101567.38
2019-05-30T13:15:19.413Z,101554.45
2019-05-30T13:18:36.156Z,101555.03
2019-05-30T13:21:53.831Z,101559.58
2019-05-30T13:25:13.968Z,101549.05
2019-05-30T13:28:30.690Z,101550.54
2019-05-30T13:31:47.294Z,101553.92
2019-05-30T13:35:07.641Z,101544.17
2019-05-30T13:38:27.034Z,101541.86
2019-05-30T13:41:43.868Z,101528.61
2019-05-30T13:45:02.029Z,101542.71
2019-05-30T13:48:19.111Z,101521.55
2019-05-30T13:51:35.809Z,101529.20
2019-05-30T13:54:52.530Z,101530.52
2019-05-30T13:58:10.528Z,101529.22
2019-05-30T14:01:27.690Z,101520.34
2019-05-30T14:04:44.420Z,101520.66
2019-05-30T14:08:02.649Z,101528.25
2019-05-30T14:11:19.552Z,101510.29
2019-05-30T14:14:36.155Z,101523.35
2019-05-30T14:17:52.896Z,101519.35
2019-05-30T14:21:09.576Z,101517.23
2019-05-30T14:24:26.347Z,101510.84
2019-05-30T14:27:43.098Z,101510.03
2019-05-30T14:30:59.787Z,101517.48
2019-05-30T14:34:16.515Z,101514.16
2019-05-30T14:37:33.246Z,101519.01
2019-05-30T14:40:49.840Z,101510.22
2019-05-30T14:44:07.164Z,101511.90
2019-05-30T14:47:26.658Z,101512.27
2019-05-30T14:50:43.734Z,101510.94
2019-05-30T14:54:00.503Z,101509.16
2019-05-30T14:57:17.591Z,101511.36
2019-05-30T15:00:34.346Z,101498.45
2019-05-30T15:03:51.155Z,101509.48
2019-05-30T15:07:07.849Z,101505.94
2019-05-30T15:10:24.789Z,101501.46
2019-05-30T15:13:41.493Z,101505.70
2019-05-30T15:16:58.608Z,101498.50
2019-05-30T15:20:17.738Z,101499.38
2019-05-30T15:23:35.153Z,101501.84
2019-05-30T15:26:51.851Z,101503.14
2019-05-30T15:30:12.764Z,101508.40
2019-05-30T15:33:31.017Z,101496.95
2019-05-30T15:36:47.777Z,101491.20
2019-05-30T15:40:04.909Z,101491.72
2019-05-30T15:43:21.631Z,101479.33
2019-05-30T15:46:38.459Z,101488.97
2019-05-30T15:49:55.214Z,101495.09
2019-05-30T15:53:13.100Z,101488.41
2019-05-30T15:56:29.877Z,101484.35
2019-05-30T15:59:46.503Z,101480.91
2019-05-30T16:03:03.233Z,101482.42
2019-05-30T16:06:20.815Z,101473.41
2019-05-30T16:09:46.735Z,101475.45
2019-05-30T16:12:55.996Z,101483.17
2019-05-30T16:16:13.535Z,101473.32
2019-05-30T16:19:30.369Z,101468.84
2019-05-30T16:22:47.176Z,101474.13
2019-05-30T16:26:04.049Z,101469.61
2019-05-30T16:29:21.884Z,101466.86
2019-05-30T16:32:38.747Z,101468.89
2019-05-30T16:35:55.624Z,101473.03
2019-05-30T16:39:20.404Z,101467.28
2019-05-30T16:42:39.987Z,101460.80
2019-05-30T16:45:56.631Z,101457.39
2019-05-30T16:49:14.360Z,101451.05
2019-05-30T16:52:31.738Z,101454.38
2019-05-30T16:56:07.723Z,101459.07
2019-05-30T16:59:55.178Z,101452.69
2019-05-30T17:03:34.097Z,101442.87
2019-05-30T17:06:51.016Z,101452.48
2019-05-30T17:10:21.374Z,101446.86
2019-05-30T17:13:26.918Z,101437.68
2019-05-30T17:16:43.711Z,101429.33
2019-05-30T17:20:00.668Z,101431.59
2019-05-30T17:23:24.846Z,101430.66
2019-05-30T17:26:45.242Z,101436.91
2019-05-30T17:30:01.995Z,101435.36
2019-05-30T17:33:20.741Z,101438.47
2019-05-30T17:36:38.715Z,101441.98
2019-05-30T17:39:55.649Z,101437.70
2019-05-30T17:43:12.545Z,101434.18
2019-05-30T17:46:30.099Z,101442.29
2019-05-30T17:49:48.526Z,101437.56
2019-05-30T17:53:05.152Z,101447.49
2019-05-30T17:56:23.973Z,101451.55
2019-05-30T17:59:40.784Z,101454.69
2019-05-30T18:02:57.983Z,101443.66
2019-05-30T18:06:14.982Z,101448.37
2019-05-30T18:09:31.582Z,101449.11
2019-05-30T18:12:48.230Z,101450.45
2019-05-30T18:16:05.454Z,101452.30
2019-05-30T18:19:23.322Z,101448.77
2019-05-30T18:22:43.500Z,101447.13
2019-05-30T18:29:40.180Z,101450.19
2019-05-30T18:32:57.116Z,101454.88
2019-05-30T18:36:15.625Z,101457.67
2019-05-30T18:39:32.886Z,101449.95
2019-05-30T18:42:49.847Z,101454.27
2019-05-30T18:46:06.541Z,101452.42
2019-05-30T18:49:41.327Z,101451.84
2019-05-30T18:53:11.728Z,101459.86
2019-05-30T19:00:16.034Z,101457.16
2019-05-30T19:04:01.685Z,101460.20
2019-05-30T19:11:00.795Z,101455.09
2019-05-30T19:15:08.837Z,101467.83
2019-05-30T19:19:10.080Z,101461.88
2019-05-30T19:22:41.740Z,101455.92
2019-05-30T19:27:12.464Z,101459.71
2019-05-30T19:30:30.622Z,101467.48
2019-05-30T19:33:48.590Z,101461.98
2019-05-30T19:37:05.469Z,101470.34
2019-05-30T19:40:24.863Z,101460.95
2019-05-30T19:43:40.878Z,101462.48
2019-05-30T19:46:58.348Z,101457.90
2019-05-30T19:50:16.448Z,101469.40
2019-05-30T19:53:34.954Z,101468.10
2019-05-30T19:56:53.001Z,101454.05
2019-05-30T20:00:11.140Z,101466.17
2019-05-30T20:03:38.529Z,101465.71
2019-05-30T20:06:48.316Z,101464.55
2019-05-30T20:14:11.012Z,101461.77
2019-05-30T20:17:30.018Z,101455.33
2019-05-30T20:20:56.725Z,101459.80
2019-05-30T20:24:05.516Z,101461.46
2019-05-30T20:27:22.185Z,101464.76
2019-05-30T20:30:39.216Z,101459.66
2019-05-30T20:33:58.563Z,101468.72
2019-05-30T20:37:15.621Z,101462.60
2019-05-30T20:40:33.050Z,101469.36
2019-05-30T20:43:49.802Z,101465.39
2019-05-30T20:47:06.672Z,101459.75
2019-05-30T20:50:23.799Z,101459.77
2019-05-30T20:53:41.258Z,101466.67
2019-05-30T20:56:57.874Z,101462.70
2019-05-30T21:00:20.235Z,101467.65
2019-05-30T21:03:44.543Z,101470.92
2019-05-30T21:07:03.441Z,101464.14
2019-05-30T21:10:20.274Z,101472.71
2019-05-30T21:13:59.813Z,101477.97
2019-05-30T21:17:17.230Z,101469.70
2019-05-30T21:20:37.855Z,101454.66
2019-05-30T21:23:55.421Z,101467.16
2019-05-30T21:27:12.982Z,101458.73
2019-05-30T21:30:31.540Z,101458.02
2019-05-30T21:33:48.488Z,101457.03
2019-05-30T21:37:05.430Z,101460.15
2019-05-30T21:40:22.452Z,101463.61
2019-05-30T21:43:40.308Z,101465.90
2019-05-30T21:46:56.984Z,101464.71
2019-05-30T21:50:13.890Z,101465.02
2019-05-30T21:53:30.759Z,101458.28
2019-05-30T21:56:48.437Z,101455.48
2019-05-30T22:00:06.673Z,101449.88
2019-05-30T22:03:24.150Z,101459.25
2019-05-30T22:06:40.942Z,101459.38
2019-05-30T22:09:57.616Z,101463.97
2019-05-30T22:13:14.380Z,101459.83
2019-05-30T22:16:31.060Z,101461.30
2019-05-30T22:19:47.916Z,101463.59
2019-05-30T22:23:04.594Z,101461.09
2019-05-30T22:26:21.315Z,101464.85
2019-05-30T22:29:40.410Z,101456.27
2019-05-30T22:32:56.274Z,101459.08
2019-05-30T22:36:14.949Z,101459.72
2019-05-30T22:39:31.589Z,101455.59
2019-05-30T22:42:48.273Z,101448.83
2019-05-30T22:46:04.921Z,101440.63
2019-05-30T22:49:21.598Z,101454.16
2019-05-30T22:52:38.408Z,101445.44
2019-05-30T22:55:55.083Z,101444.93
2019-05-30T22:59:11.728Z,101446.91
2019-05-30T23:02:28.457Z,101456.14
2019-05-30T23:05:45.330Z,101449.85
2019-05-30T23:09:01.968Z,101450.02
2019-05-30T23:12:18.608Z,101451.83
2019-05-30T23:15:35.386Z,101443.53
2019-05-30T23:18:52.643Z,101445.20
2019-05-30T23:22:09.275Z,101442.91
2019-05-30T23:25:27.400Z,101440.63
2019-05-30T23:28:44.048Z,101438.44
2019-05-30T23:32:00.668Z,101442.91
2019-05-30T23:35:17.671Z,101439.77
2019-05-30T23:38:34.477Z,101438.13
2019-05-30T23:41:51.135Z,101452.45
2019-05-30T23:45:07.775Z,101444.55
2019-05-30T23:48:24.388Z,101446.40
2019-05-30T23:51:41.391Z,101434.68
2019-05-30T23:54:58.339Z,101437.48
2019-05-30T23:58:14.983Z,101442.44
